Bluff, North Carolina
Current Conditions -  °F | °C
As of 6:54 AM on Monday 22 Dec 2014 (Local Time) from KAVL Reporting Station
Haze Haze  
Wind Chill: 35°   Ceiling: 200
Heat Index: 39°   Visibility: 2mi
Dew Point: 38°   Wind: 6mph
Humidity: 96%   Direction: 170°S
Pressure: 30.07"   Gusts: NA
Location:  35.8037°N, 82.868°W
Report Text: KAVL 221154Z AUTO 17005KT 2SM BR OVC002 04/03 A3007 RMK AO2 RAB31E46 SLP185 P0001 60001 70001 T00390033 10044 20039 52001
Loading
Personal Weather Stations






























Interactive Weather Map New forecast layout! Learn more

10-Day Weather Forecast

Advertisements
Track Severe Weather on mobile